createdAt,value
2018-06-04T00:02:21.388Z,6.33
2018-06-04T00:04:49.829Z,7.10
2018-06-04T00:07:18.340Z,6.50
2018-06-04T00:09:46.764Z,5.97
2018-06-04T00:12:15.118Z,6.63
2018-06-04T00:14:43.603Z,7.30
2018-06-04T00:17:11.914Z,5.57
2018-06-04T00:19:40.313Z,7.10
2018-06-04T00:22:08.664Z,7.27
2018-06-04T00:24:37.019Z,6.80
2018-06-04T00:27:05.393Z,8.63
2018-06-04T00:29:33.841Z,6.80
2018-06-04T00:32:02.220Z,6.50
2018-06-04T00:34:30.621Z,6.20
2018-06-04T00:36:59.017Z,7.77
2018-06-04T00:39:27.350Z,6.60
2018-06-04T00:41:55.782Z,6.97
2018-06-04T00:44:24.111Z,6.83
2018-06-04T00:46:52.464Z,6.10
2018-06-04T00:49:20.929Z,6.40
2018-06-04T00:51:49.332Z,7.63
2018-06-04T00:54:17.740Z,6.90
2018-06-04T00:56:46.125Z,6.80
2018-06-04T00:59:14.557Z,8.10
2018-06-04T01:01:42.942Z,6.37
2018-06-04T01:04:11.258Z,7.17
2018-06-04T01:06:39.623Z,6.67
2018-06-04T01:09:08.385Z,6.67
2018-06-04T01:11:37.544Z,7.30
2018-06-04T01:14:05.944Z,5.90
2018-06-04T01:16:34.283Z,7.00
2018-06-04T01:19:02.611Z,6.37
2018-06-04T01:21:31.036Z,6.80
2018-06-04T01:23:59.431Z,5.97
2018-06-04T01:26:27.855Z,6.70
2018-06-04T01:28:56.229Z,7.00
2018-06-04T01:31:24.631Z,6.07
2018-06-04T01:33:53.048Z,6.47
2018-06-04T01:36:21.446Z,5.90
2018-06-04T01:38:49.795Z,7.03
2018-06-04T01:41:18.557Z,6.80
2018-06-04T01:43:46.895Z,6.47
2018-06-04T01:46:15.256Z,6.80
2018-06-04T01:48:43.575Z,7.23
2018-06-04T01:51:11.945Z,6.80
2018-06-04T01:53:40.352Z,7.53
2018-06-04T01:56:08.683Z,7.03
2018-06-04T01:58:37.136Z,7.33
2018-06-04T02:01:05.466Z,6.30
2018-06-04T02:03:33.851Z,6.67
2018-06-04T02:06:02.236Z,9.87
2018-06-04T02:08:30.642Z,6.17
2018-06-04T02:10:59.180Z,6.73
2018-06-04T02:13:27.544Z,7.13
2018-06-04T02:15:55.998Z,6.77
2018-06-04T02:18:24.342Z,6.37
2018-06-04T02:20:52.732Z,5.70
2018-06-04T02:23:21.093Z,7.53
2018-06-04T02:25:49.473Z,6.87
2018-06-04T02:28:17.865Z,6.50
2018-06-04T02:30:46.273Z,6.80
2018-06-04T02:33:14.694Z,6.30
2018-06-04T02:35:43.123Z,7.10
2018-06-04T02:38:11.550Z,6.17
2018-06-04T02:40:39.974Z,7.30
2018-06-04T02:43:08.329Z,6.20
2018-06-04T02:45:36.733Z,6.50
2018-06-04T02:48:05.464Z,6.67
2018-06-04T02:50:33.835Z,7.27
2018-06-04T02:53:02.222Z,8.00
2018-06-04T02:55:30.636Z,7.20
2018-06-04T02:57:59.014Z,6.90
2018-06-04T03:00:27.349Z,7.53
2018-06-04T03:02:55.736Z,9.60
2018-06-04T03:05:24.130Z,6.90
2018-06-04T03:07:52.615Z,7.13
2018-06-04T03:10:21.046Z,7.67
2018-06-04T03:12:49.523Z,8.07
2018-06-04T03:15:17.949Z,6.63
2018-06-04T03:17:46.419Z,7.67
2018-06-04T03:20:14.832Z,7.00
2018-06-04T03:22:43.177Z,6.37
2018-06-04T03:25:11.545Z,6.77
2018-06-04T03:27:40.129Z,7.43
2018-06-04T03:30:08.520Z,6.30
2018-06-04T03:32:36.894Z,6.87
2018-06-04T03:35:05.232Z,7.20
2018-06-04T03:37:33.582Z,7.27
2018-06-04T03:40:02.024Z,7.23
2018-06-04T03:42:30.446Z,6.83
2018-06-04T03:44:58.868Z,7.57
2018-06-04T03:47:27.317Z,6.90
2018-06-04T03:49:55.696Z,8.00
2018-06-04T03:52:24.162Z,7.83
2018-06-04T03:54:52.721Z,7.20
2018-06-04T03:57:21.129Z,8.37
2018-06-04T03:59:49.454Z,8.67
2018-06-04T04:02:17.832Z,7.43
2018-06-04T04:04:46.240Z,7.30
2018-06-04T04:07:14.592Z,7.80
2018-06-04T04:09:43.213Z,8.53
2018-06-04T04:12:11.566Z,8.23
2018-06-04T04:14:40.202Z,6.50
2018-06-04T04:17:08.693Z,7.50
2018-06-04T04:19:37.098Z,7.13
2018-06-04T04:22:05.549Z,7.10
2018-06-04T04:24:34.770Z,7.00
2018-06-04T04:27:03.183Z,7.63
2018-06-04T04:29:31.613Z,7.80
2018-06-04T04:31:59.980Z,7.43
2018-06-04T04:34:28.360Z,6.43
2018-06-04T04:36:56.737Z,7.27
2018-06-04T04:39:25.159Z,6.77
2018-06-04T04:41:55.154Z,6.83
2018-06-04T04:44:23.588Z,7.27
2018-06-04T04:46:52.022Z,8.60
2018-06-04T04:49:20.354Z,7.20
2018-06-04T04:51:48.786Z,7.97
2018-06-04T04:54:17.216Z,8.47
2018-06-04T04:56:45.670Z,7.23
2018-06-04T04:59:14.051Z,6.30
2018-06-04T05:01:42.454Z,7.17
2018-06-04T05:04:10.875Z,7.00
2018-06-04T05:06:39.328Z,7.60
2018-06-04T05:09:08.816Z,6.67
2018-06-04T05:11:37.608Z,6.90
2018-06-04T05:14:05.941Z,6.37
2018-06-04T05:16:34.306Z,5.93
2018-06-04T05:19:02.621Z,6.10
2018-06-04T05:21:31.037Z,6.37
2018-06-04T05:23:59.484Z,6.07
2018-06-04T05:26:27.879Z,5.90
2018-06-04T05:28:56.264Z,6.00
2018-06-04T05:31:24.702Z,6.40
2018-06-04T05:33:53.071Z,7.90
2018-06-04T05:36:21.372Z,6.67
2018-06-04T05:38:49.742Z,6.40
2018-06-04T05:41:18.342Z,6.43
2018-06-04T05:43:46.832Z,5.90
2018-06-04T05:46:15.198Z,6.50
2018-06-04T05:48:43.652Z,7.00
2018-06-04T05:51:11.979Z,6.70
2018-06-04T05:53:40.326Z,7.43
2018-06-04T05:56:08.825Z,7.20
2018-06-04T05:58:37.175Z,6.47
2018-06-04T06:01:05.572Z,7.20
2018-06-04T06:03:34.026Z,7.73
2018-06-04T06:06:02.444Z,7.33
2018-06-04T06:08:30.879Z,6.63
2018-06-04T06:10:59.262Z,7.10
2018-06-04T06:13:28.116Z,6.37
2018-06-04T06:15:56.473Z,5.43
2018-06-04T06:18:24.914Z,7.20
2018-06-04T06:20:53.308Z,6.10
2018-06-04T06:23:21.862Z,6.40
2018-06-04T06:25:50.205Z,6.10
2018-06-04T06:28:18.520Z,6.17
2018-06-04T06:30:46.891Z,6.07
2018-06-04T06:33:15.268Z,6.80
2018-06-04T06:35:43.738Z,6.30
2018-06-04T06:38:12.089Z,6.17
2018-06-04T06:40:40.520Z,6.20
2018-06-04T06:43:08.926Z,5.83
2018-06-04T06:45:37.337Z,6.50
2018-06-04T06:48:06.276Z,5.30
2018-06-04T06:50:34.736Z,5.90
2018-06-04T06:53:03.114Z,6.80
2018-06-04T06:55:31.598Z,6.03
2018-06-04T06:58:00.160Z,5.40
2018-06-04T07:00:28.560Z,6.80
2018-06-04T07:02:56.879Z,6.27
2018-06-04T07:05:25.295Z,5.50
2018-06-04T07:07:53.654Z,6.40
2018-06-04T07:10:22.051Z,6.10
2018-06-04T07:12:51.260Z,7.90
2018-06-04T07:15:20.717Z,6.60
2018-06-04T07:17:49.054Z,6.63
2018-06-04T07:20:17.416Z,5.53
2018-06-04T07:23:01.595Z,6.20
2018-06-04T07:25:30.424Z,5.80
2018-06-04T07:27:58.828Z,5.93
2018-06-04T07:30:27.177Z,5.83
2018-06-04T07:32:56.100Z,6.47
2018-06-04T07:35:24.498Z,6.43
2018-06-04T07:37:52.861Z,5.67
2018-06-04T07:40:21.361Z,5.73
2018-06-04T07:42:49.721Z,4.57
2018-06-04T07:45:18.105Z,6.13
2018-06-04T07:47:46.487Z,6.53
2018-06-04T07:50:16.845Z,6.20
2018-06-04T07:52:45.262Z,6.40
2018-06-04T07:55:13.712Z,5.27
2018-06-04T07:57:42.038Z,5.63
2018-06-04T08:00:10.478Z,5.10
2018-06-04T08:02:38.830Z,4.87
2018-06-04T08:05:07.263Z,5.43
2018-06-04T08:07:35.716Z,5.83
2018-06-04T08:10:04.645Z,5.27
2018-06-04T08:12:32.962Z,4.97
2018-06-04T08:15:02.760Z,5.83
2018-06-04T08:17:31.022Z,5.97
2018-06-04T08:19:59.965Z,5.60
2018-06-04T08:22:28.315Z,5.77
2018-06-04T08:24:56.721Z,5.10
2018-06-04T08:27:25.174Z,5.80
2018-06-04T08:29:53.532Z,4.93
2018-06-04T08:32:21.912Z,4.90
2018-06-04T08:34:50.773Z,5.40
2018-06-04T08:37:19.179Z,5.60
2018-06-04T08:39:47.619Z,4.87
2018-06-04T08:42:16.042Z,6.07
2018-06-04T08:44:44.457Z,5.07
2018-06-04T08:47:12.863Z,4.80
2018-06-04T08:49:41.274Z,5.20
2018-06-04T08:52:09.650Z,5.03
2018-06-04T08:54:38.010Z,4.47
2018-06-04T08:57:06.386Z,4.80
2018-06-04T08:59:34.741Z,4.80
2018-06-04T09:02:03.120Z,4.10
2018-06-04T09:04:31.479Z,4.80
2018-06-04T09:06:59.883Z,4.77
2018-06-04T09:09:28.240Z,4.40
2018-06-04T09:11:56.588Z,5.00
2018-06-04T09:14:24.975Z,5.23
2018-06-04T09:16:53.335Z,6.50
2018-06-04T09:19:21.696Z,6.20
2018-06-04T09:21:50.011Z,8.07
2018-06-04T09:24:18.438Z,5.10
2018-06-04T09:26:47.014Z,4.33
2018-06-04T09:29:15.453Z,6.80
2018-06-04T09:31:43.841Z,5.73
2018-06-04T09:34:12.240Z,7.60
2018-06-04T09:36:40.687Z,4.97
2018-06-04T09:39:09.070Z,4.87
2018-06-04T09:41:37.477Z,4.93
2018-06-04T09:44:05.881Z,4.20
2018-06-04T09:46:34.208Z,3.80
2018-06-04T09:49:02.593Z,6.00
2018-06-04T09:51:30.953Z,4.63
2018-06-04T09:53:59.367Z,5.67
2018-06-04T09:56:27.722Z,5.40
2018-06-04T09:58:56.066Z,5.73
2018-06-04T10:01:24.472Z,5.10
2018-06-04T10:03:52.883Z,4.60
2018-06-04T10:06:21.299Z,3.80
2018-06-04T10:08:49.636Z,4.47
2018-06-04T10:11:18.456Z,4.47
2018-06-04T10:13:46.861Z,4.60
2018-06-04T10:16:15.203Z,3.30
2018-06-04T10:18:43.643Z,3.77
2018-06-04T10:21:12.108Z,3.40
2018-06-04T10:23:40.427Z,4.20
2018-06-04T10:26:08.910Z,3.33
2018-06-04T10:28:37.504Z,5.20
2018-06-04T10:31:05.860Z,4.43
2018-06-04T10:33:34.247Z,3.50
2018-06-04T10:36:02.630Z,4.43
2018-06-04T10:38:30.958Z,5.33
2018-06-04T10:40:59.426Z,3.50
2018-06-04T10:43:27.861Z,4.77
2018-06-04T10:45:56.229Z,3.97
2018-06-04T10:48:24.723Z,4.10
2018-06-04T10:50:53.169Z,4.97
2018-06-04T10:53:21.724Z,8.53
2018-06-04T10:55:50.266Z,4.40
2018-06-04T10:58:18.630Z,4.10
2018-06-04T11:00:47.028Z,4.10
2018-06-04T11:03:15.472Z,3.83
2018-06-04T11:05:43.868Z,3.50
2018-06-04T11:08:12.209Z,3.47
2018-06-04T11:10:40.569Z,3.67
2018-06-04T11:13:08.884Z,4.10
2018-06-04T11:15:37.253Z,4.13
2018-06-04T11:18:06.075Z,3.70
2018-06-04T11:20:34.402Z,3.97
2018-06-04T11:23:02.989Z,3.97
2018-06-04T11:25:31.402Z,3.80
2018-06-04T11:27:59.820Z,4.97
2018-06-04T11:30:28.324Z,4.10
2018-06-04T11:32:56.617Z,6.10
2018-06-04T11:35:24.993Z,4.30
2018-06-04T11:37:53.398Z,3.70
2018-06-04T11:40:21.795Z,4.70
2018-06-04T11:42:50.230Z,4.60
2018-06-04T11:45:19.316Z,3.70
2018-06-04T11:47:47.679Z,4.33
2018-06-04T11:50:16.012Z,4.40
2018-06-04T11:52:44.452Z,3.73
2018-06-04T11:55:12.828Z,3.70
2018-06-04T11:57:41.164Z,3.87
2018-06-04T12:00:09.569Z,3.97
2018-06-04T12:02:37.956Z,4.57
2018-06-04T12:05:06.329Z,5.13
2018-06-04T12:07:34.705Z,4.80
2018-06-04T12:10:03.119Z,3.83
2018-06-04T12:12:31.522Z,4.23
2018-06-04T12:14:59.961Z,4.50
2018-06-04T12:17:28.444Z,3.90
2018-06-04T12:19:56.826Z,5.13
2018-06-04T12:22:25.289Z,3.90
2018-06-04T12:24:53.767Z,5.23
2018-06-04T12:27:22.165Z,4.57
2018-06-04T12:29:50.579Z,4.20
2018-06-04T12:32:18.937Z,3.80
2018-06-04T12:34:47.313Z,4.13
2018-06-04T12:37:15.784Z,4.47
2018-06-04T12:39:44.218Z,4.40
2018-06-04T12:42:12.612Z,4.30
2018-06-04T12:44:40.966Z,3.97
2018-06-04T12:47:09.304Z,4.50
2018-06-04T12:49:38.763Z,4.27
2018-06-04T12:52:07.101Z,3.70
2018-06-04T12:54:35.421Z,4.37
2018-06-04T12:57:03.839Z,4.00
2018-06-04T12:59:32.170Z,4.90
2018-06-04T13:02:00.665Z,4.07
2018-06-04T13:04:29.050Z,4.23
2018-06-04T13:06:57.460Z,4.20
2018-06-04T13:09:25.828Z,4.80
2018-06-04T13:11:54.183Z,3.50
2018-06-04T13:14:22.499Z,4.63
2018-06-04T13:16:50.878Z,4.03
2018-06-04T13:19:19.258Z,4.17
2018-06-04T13:21:47.658Z,4.50
2018-06-04T13:24:15.982Z,4.03
2018-06-04T13:26:44.338Z,4.40
2018-06-04T13:29:12.739Z,3.60
2018-06-04T13:31:40.804Z,3.63
2018-06-04T13:34:09.292Z,3.70
2018-06-04T13:36:37.644Z,3.60
2018-06-04T13:39:08.678Z,4.40
2018-06-04T13:41:37.204Z,4.63
2018-06-04T13:44:05.591Z,3.13
2018-06-04T13:46:33.970Z,3.70
2018-06-04T13:49:02.413Z,3.33
2018-06-04T13:51:30.829Z,5.43
2018-06-04T13:53:59.233Z,4.53
2018-06-04T13:56:27.655Z,4.30
2018-06-04T13:58:56.243Z,4.70
2018-06-04T14:01:24.752Z,4.17
2018-06-04T14:03:53.240Z,6.40
2018-06-04T14:06:21.689Z,4.10
2018-06-04T14:08:50.507Z,4.10
2018-06-04T14:11:19.043Z,6.97
2018-06-04T14:13:47.489Z,5.03
2018-06-04T14:16:15.804Z,4.50
2018-06-04T14:18:44.231Z,9.27
2018-06-04T14:21:12.559Z,4.67
2018-06-04T14:23:40.937Z,5.20
2018-06-04T14:26:09.362Z,4.13
2018-06-04T14:28:37.720Z,4.70
2018-06-04T14:31:06.396Z,4.90
2018-06-04T14:33:34.822Z,5.23
2018-06-04T14:36:03.261Z,5.50
2018-06-04T14:38:31.682Z,5.10
2018-06-04T14:41:00.191Z,4.77
2018-06-04T14:43:28.765Z,4.20
2018-06-04T14:45:57.145Z,4.70
2018-06-04T14:48:25.488Z,4.43
2018-06-04T14:50:53.905Z,4.23
2018-06-04T14:53:22.219Z,4.37
2018-06-04T14:55:50.606Z,4.27
2018-06-04T14:58:18.955Z,5.10
2018-06-04T15:00:47.405Z,5.53
2018-06-04T15:03:15.834Z,4.83
2018-06-04T15:05:44.290Z,5.20
2018-06-04T15:08:12.746Z,4.73
2018-06-04T15:10:41.461Z,5.90
2018-06-04T15:13:10.714Z,4.50
2018-06-04T15:15:39.112Z,5.10
2018-06-04T15:18:07.479Z,5.13
2018-06-04T15:20:35.867Z,5.33
2018-06-04T15:23:04.255Z,5.20
2018-06-04T15:25:32.806Z,5.47
2018-06-04T15:28:01.206Z,5.77
2018-06-04T15:30:29.596Z,5.63
2018-06-04T15:32:57.952Z,6.33
2018-06-04T15:35:26.318Z,6.67
2018-06-04T15:37:54.740Z,5.50
2018-06-04T15:40:23.040Z,6.03
2018-06-04T15:42:51.371Z,7.50
2018-06-04T15:45:19.791Z,5.17
2018-06-04T15:47:48.250Z,6.10
2018-06-04T15:50:16.770Z,6.10
2018-06-04T15:52:45.175Z,4.97
2018-06-04T15:55:13.653Z,7.43
2018-06-04T15:57:42.410Z,5.13
2018-06-04T16:00:10.861Z,5.10
2018-06-04T16:02:39.207Z,5.33
2018-06-04T16:05:07.620Z,5.53
2018-06-04T16:07:36.024Z,5.67
2018-06-04T16:10:04.447Z,5.13
2018-06-04T16:12:32.806Z,5.60
2018-06-04T16:15:01.248Z,4.90
2018-06-04T16:17:29.697Z,8.93
2018-06-04T16:19:58.047Z,5.67
2018-06-04T16:22:26.376Z,4.43
2018-06-04T16:24:54.722Z,4.50
2018-06-04T16:27:23.207Z,4.90
2018-06-04T16:29:53.271Z,4.60
2018-06-04T16:32:21.678Z,4.50
2018-06-04T16:34:50.040Z,4.80
2018-06-04T16:37:18.531Z,4.70
2018-06-04T16:39:46.889Z,4.17
2018-06-04T16:42:15.355Z,4.30
2018-06-04T16:44:43.669Z,4.97
2018-06-04T16:47:11.737Z,4.90
2018-06-04T16:49:40.443Z,3.97
2018-06-04T16:52:08.909Z,4.90
2018-06-04T16:54:37.227Z,5.57
2018-06-04T16:57:05.700Z,4.07
2018-06-04T16:59:34.096Z,3.67
2018-06-04T17:02:02.469Z,4.00
2018-06-04T17:04:30.845Z,4.03
2018-06-04T17:06:59.223Z,5.30
2018-06-04T17:09:27.620Z,3.67
2018-06-04T17:11:56.073Z,4.13
2018-06-04T17:14:24.459Z,4.20
2018-06-04T17:16:52.811Z,4.13
2018-06-04T17:19:21.197Z,4.30
2018-06-04T17:21:49.632Z,3.70
2018-06-04T17:24:18.021Z,4.10
2018-06-04T17:26:46.406Z,4.50
2018-06-04T17:29:14.853Z,6.70
2018-06-04T17:31:43.371Z,4.17
2018-06-04T17:34:11.922Z,5.23
2018-06-04T17:36:40.301Z,4.20
2018-06-04T17:39:08.861Z,4.00
2018-06-04T17:41:37.473Z,4.40
2018-06-04T17:44:05.904Z,4.17
2018-06-04T17:46:34.292Z,4.37
2018-06-04T17:49:02.635Z,4.53
2018-06-04T17:51:31.053Z,4.27
2018-06-04T17:53:59.521Z,4.80
2018-06-04T17:56:27.906Z,4.53
2018-06-04T17:58:56.261Z,4.23
2018-06-04T18:01:24.637Z,5.00
2018-06-04T18:03:53.028Z,4.90
2018-06-04T18:06:21.445Z,4.77
2018-06-04T18:08:49.869Z,5.13
2018-06-04T18:11:18.236Z,5.47
2018-06-04T18:13:46.664Z,5.53
2018-06-04T18:16:15.084Z,5.90
2018-06-04T18:18:43.515Z,6.30
2018-06-04T18:21:11.927Z,9.80
2018-06-04T18:23:40.626Z,5.00
2018-06-04T18:26:09.033Z,5.47
2018-06-04T18:28:37.580Z,5.63
2018-06-04T18:31:06.610Z,5.47
2018-06-04T18:33:34.990Z,6.60
2018-06-04T18:36:03.486Z,5.20
2018-06-04T18:38:32.027Z,6.00
2018-06-04T18:41:00.423Z,6.47
2018-06-04T18:43:28.959Z,5.77
2018-06-04T18:45:57.505Z,6.67
2018-06-04T18:48:26.112Z,6.27
2018-06-04T18:50:54.621Z,5.67
2018-06-04T18:53:23.294Z,6.77
2018-06-04T18:55:51.743Z,6.30
2018-06-04T18:58:20.139Z,7.63
2018-06-04T19:00:48.527Z,6.03
2018-06-04T19:03:16.986Z,7.07
2018-06-04T19:05:45.451Z,7.43
2018-06-04T19:08:14.074Z,6.90
2018-06-04T19:10:42.548Z,6.70
2018-06-04T19:13:11.036Z,6.47
2018-06-04T19:15:39.500Z,6.43
2018-06-04T19:18:07.879Z,8.33
2018-06-04T19:20:36.305Z,6.37
2018-06-04T19:23:04.598Z,6.27
2018-06-04T19:25:32.961Z,6.60
2018-06-04T19:28:01.395Z,6.33
2018-06-04T19:30:29.821Z,6.27
2018-06-04T19:32:58.263Z,6.60
2018-06-04T19:35:26.616Z,6.70
2018-06-04T19:37:55.028Z,8.53
2018-06-04T19:40:23.453Z,8.40
2018-06-04T19:42:51.855Z,7.07
2018-06-04T19:45:20.281Z,8.90
2018-06-04T19:47:48.685Z,6.23
2018-06-04T19:50:17.068Z,6.77
2018-06-04T19:52:45.574Z,6.70
2018-06-04T19:55:13.947Z,6.67
2018-06-04T19:57:42.710Z,6.70
2018-06-04T20:00:11.216Z,5.90
2018-06-04T20:02:39.653Z,6.47
2018-06-04T20:05:08.562Z,8.67
2018-06-04T20:07:36.971Z,6.83
2018-06-04T20:10:05.445Z,8.03
2018-06-04T20:12:33.870Z,7.67
2018-06-04T20:15:02.332Z,9.27
2018-06-04T20:17:30.796Z,10.17
2018-06-04T20:19:59.125Z,8.00
2018-06-04T20:22:27.485Z,19.30
2018-06-04T20:24:55.885Z,6.87
2018-06-04T20:27:24.254Z,9.00
2018-06-04T20:29:52.605Z,10.80
2018-06-04T20:32:21.051Z,7.67
2018-06-04T20:34:49.498Z,7.83
2018-06-04T20:37:17.975Z,8.47
2018-06-04T20:39:46.492Z,8.20
2018-06-04T20:42:14.946Z,8.30
2018-06-04T20:44:43.382Z,8.20
2018-06-04T20:47:11.745Z,7.67
2018-06-04T20:49:40.093Z,7.10
2018-06-04T20:52:08.515Z,9.00
2018-06-04T20:54:36.880Z,9.30
2018-06-04T20:57:05.284Z,8.63
2018-06-04T20:59:33.711Z,7.50
2018-06-04T21:02:02.127Z,8.13
2018-06-04T21:04:30.517Z,7.13
2018-06-04T21:06:58.906Z,8.43
2018-06-04T21:09:27.357Z,6.83
2018-06-04T21:11:55.799Z,7.67
2018-06-04T21:14:24.249Z,8.70
2018-06-04T21:16:52.625Z,7.37
2018-06-04T21:19:21.033Z,8.20
2018-06-04T21:21:49.483Z,6.40
2018-06-04T21:24:17.873Z,8.20
2018-06-04T21:26:46.229Z,7.83
2018-06-04T21:29:14.599Z,6.90
2018-06-04T21:31:42.975Z,8.50
2018-06-04T21:34:11.351Z,7.30
2018-06-04T21:36:39.716Z,7.90
2018-06-04T21:39:08.074Z,7.97
2018-06-04T21:41:36.494Z,7.73
2018-06-04T21:44:04.932Z,8.20
2018-06-04T21:46:33.330Z,7.47
2018-06-04T21:49:01.746Z,7.50
2018-06-04T21:51:30.169Z,10.07
2018-06-04T21:53:58.769Z,7.13
2018-06-04T21:56:27.179Z,6.80
2018-06-04T21:58:55.505Z,7.23
2018-06-04T22:01:23.966Z,7.63
2018-06-04T22:03:52.396Z,7.23
2018-06-04T22:06:20.840Z,7.10
2018-06-04T22:08:49.408Z,7.70
2018-06-04T22:11:17.927Z,7.77
2018-06-04T22:13:46.336Z,7.80
2018-06-04T22:16:14.695Z,9.20
2018-06-04T22:18:43.108Z,9.50
2018-06-04T22:21:11.523Z,8.57
2018-06-04T22:23:39.877Z,9.67
2018-06-04T22:26:08.223Z,8.20
2018-06-04T22:28:36.728Z,8.43
2018-06-04T22:31:05.119Z,8.50
2018-06-04T22:33:33.525Z,7.73
2018-06-04T22:36:01.941Z,8.73
2018-06-04T22:38:30.323Z,8.70
2018-06-04T22:40:58.826Z,8.87
2018-06-04T22:43:27.261Z,9.23
2018-06-04T22:45:56.091Z,8.67
2018-06-04T22:48:24.442Z,8.57
2018-06-04T22:50:52.921Z,8.63
2018-06-04T22:53:21.348Z,9.00
2018-06-04T22:55:49.696Z,8.47
2018-06-04T22:58:18.043Z,9.03
2018-06-04T23:00:46.398Z,9.10
2018-06-04T23:03:14.806Z,8.60
2018-06-04T23:05:43.151Z,10.37
2018-06-04T23:08:11.657Z,9.07
2018-06-04T23:10:40.004Z,9.13
2018-06-04T23:13:08.369Z,9.00
2018-06-04T23:15:36.743Z,8.10
2018-06-04T23:18:05.268Z,10.17
2018-06-04T23:20:33.639Z,9.20
2018-06-04T23:23:02.016Z,10.00
2018-06-04T23:25:30.376Z,10.33
2018-06-04T23:27:58.795Z,8.77
2018-06-04T23:30:27.244Z,9.47
2018-06-04T23:32:55.643Z,10.20
2018-06-04T23:35:24.004Z,9.57
2018-06-04T23:37:52.367Z,9.30
2018-06-04T23:40:20.695Z,9.10
2018-06-04T23:42:49.024Z,9.43
2018-06-04T23:45:17.487Z,8.90
2018-06-04T23:47:45.901Z,9.10
2018-06-04T23:50:14.286Z,8.80
2018-06-04T23:52:42.692Z,10.40
2018-06-04T23:55:11.059Z,9.17
2018-06-04T23:57:39.491Z,8.23
